sensor_id;sensor_type;location;lat;lon;timestamp;pressure;altitude;pressure_sealevel;temperature;humidity
35507;BME280;36461;52.018;21.036;2022-07-25T00:00:49;100631.31;;;14.21;84.35
35507;BME280;36461;52.018;21.036;2022-07-25T00:03:16;100630.00;;;14.21;84.37
35507;BME280;36461;52.018;21.036;2022-07-25T00:05:42;100638.27;;;14.20;84.44
35507;BME280;36461;52.018;21.036;2022-07-25T00:08:08;100636.57;;;14.19;84.51
35507;BME280;36461;52.018;21.036;2022-07-25T00:10:35;100635.34;;;14.18;84.45
35507;BME280;36461;52.018;21.036;2022-07-25T00:13:01;100628.95;;;14.15;84.50
35507;BME280;36461;52.018;21.036;2022-07-25T00:15:28;100623.80;;;14.13;84.60
35507;BME280;36461;52.018;21.036;2022-07-25T00:17:54;100626.41;;;14.13;84.79
35507;BME280;36461;52.018;21.036;2022-07-25T00:20:21;100627.32;;;14.12;85.05
35507;BME280;36461;52.018;21.036;2022-07-25T00:22:47;100623.47;;;14.10;85.04
35507;BME280;36461;52.018;21.036;2022-07-25T00:25:14;100617.09;;;14.07;85.21
35507;BME280;36461;52.018;21.036;2022-07-25T00:27:40;100617.59;;;14.05;85.34
35507;BME280;36461;52.018;21.036;2022-07-25T00:30:07;100613.75;;;14.04;85.40
35507;BME280;36461;52.018;21.036;2022-07-25T00:32:34;100613.83;;;14.02;85.44
35507;BME280;36461;52.018;21.036;2022-07-25T00:35:00;100616.11;;;14.00;85.42
35507;BME280;36461;52.018;21.036;2022-07-25T00:37:27;100612.27;;;13.98;85.49
35507;BME280;36461;52.018;21.036;2022-07-25T00:39:53;100614.80;;;14.00;85.52
35507;BME280;36461;52.018;21.036;2022-07-25T00:42:20;100617.02;;;13.99;85.62
35507;BME280;36461;52.018;21.036;2022-07-25T00:44:49;100617.48;;;13.98;85.68
35507;BME280;36461;52.018;21.036;2022-07-25T00:47:16;100613.64;;;13.97;85.71
35507;BME280;36461;52.018;21.036;2022-07-25T00:49:43;100616.25;;;13.97;85.64
35507;BME280;36461;52.018;21.036;2022-07-25T00:52:10;100609.39;;;13.94;85.70
35507;BME280;36461;52.018;21.036;2022-07-25T00:54:37;100600.37;;;13.91;85.76
35507;BME280;36461;52.018;21.036;2022-07-25T00:57:04;100603.59;;;13.87;85.85
35507;BME280;36461;52.018;21.036;2022-07-25T00:59:30;100595.87;;;13.84;86.05
35507;BME280;36461;52.018;21.036;2022-07-25T01:01:57;100595.50;;;13.83;86.25
35507;BME280;36461;52.018;21.036;2022-07-25T01:04:23;100590.86;;;13.80;86.28
35507;BME280;36461;52.018;21.036;2022-07-25T01:06:50;100593.61;;;13.76;86.49
35507;BME280;36461;52.018;21.036;2022-07-25T01:09:17;100603.31;;;13.73;86.54
35507;BME280;36461;52.018;21.036;2022-07-25T01:11:44;100605.73;;;13.67;86.37
35507;BME280;36461;52.018;21.036;2022-07-25T01:14:10;100600.83;;;13.59;86.27
35507;BME280;36461;52.018;21.036;2022-07-25T01:16:37;100604.47;;;13.55;86.37
35507;BME280;36461;52.018;21.036;2022-07-25T01:19:05;100597.69;;;13.51;86.43
35507;BME280;36461;52.018;21.036;2022-07-25T01:21:32;100601.70;;;13.48;86.43
35507;BME280;36461;52.018;21.036;2022-07-25T01:23:58;100596.22;;;13.44;86.43
35507;BME280;36461;52.018;21.036;2022-07-25T01:26:25;100594.55;;;13.43;86.60
35507;BME280;36461;52.018;21.036;2022-07-25T01:28:51;100598.12;;;13.40;86.68
35507;BME280;36461;52.018;21.036;2022-07-25T01:31:17;100597.86;;;13.36;86.65
35507;BME280;36461;52.018;21.036;2022-07-25T01:33:43;100600.10;;;13.34;86.74
35507;BME280;36461;52.018;21.036;2022-07-25T01:36:10;100597.59;;;13.31;86.68
35507;BME280;36461;52.018;21.036;2022-07-25T01:38:36;100599.09;;;13.26;86.63
35507;BME280;36461;52.018;21.036;2022-07-25T01:41:03;100592.25;;;13.23;86.66
35507;BME280;36461;52.018;21.036;2022-07-25T01:43:29;100591.98;;;13.19;86.75
35507;BME280;36461;52.018;21.036;2022-07-25T01:45:56;100592.11;;;13.16;86.87
35507;BME280;36461;52.018;21.036;2022-07-25T01:48:22;100589.56;;;13.15;87.01
35507;BME280;36461;52.018;21.036;2022-07-25T01:50:48;100598.72;;;13.13;87.14
35507;BME280;36461;52.018;21.036;2022-07-25T01:53:15;100593.98;;;13.13;87.29
35507;BME280;36461;52.018;21.036;2022-07-25T01:55:43;100590.53;;;13.12;87.17
35507;BME280;36461;52.018;21.036;2022-07-25T01:58:10;100590.56;;;13.10;87.13
35507;BME280;36461;52.018;21.036;2022-07-25T02:00:37;100591.60;;;13.06;87.15
35507;BME280;36461;52.018;21.036;2022-07-25T02:03:04;100591.66;;;13.05;87.21
35507;BME280;36461;52.018;21.036;2022-07-25T02:05:36;100584.48;;;13.00;87.25
35507;BME280;36461;52.018;21.036;2022-07-25T02:08:02;100584.61;;;12.97;87.37
35507;BME280;36461;52.018;21.036;2022-07-25T02:10:29;100573.02;;;12.93;87.44
35507;BME280;36461;52.018;21.036;2022-07-25T02:12:55;100578.72;;;12.91;87.42
35507;BME280;36461;52.018;21.036;2022-07-25T02:15:22;100581.86;;;12.89;87.47
35507;BME280;36461;52.018;21.036;2022-07-25T02:17:48;100580.65;;;12.86;87.70
35507;BME280;36461;52.018;21.036;2022-07-25T02:20:14;100585.92;;;12.85;87.81
35507;BME280;36461;52.018;21.036;2022-07-25T02:22:40;100580.78;;;12.83;87.72
35507;BME280;36461;52.018;21.036;2022-07-25T02:25:07;100586.89;;;12.82;87.77
35507;BME280;36461;52.018;21.036;2022-07-25T02:27:34;100586.52;;;12.81;87.60
35507;BME280;36461;52.018;21.036;2022-07-25T02:30:00;100586.67;;;12.76;87.60
35507;BME280;36461;52.018;21.036;2022-07-25T02:32:27;100592.85;;;12.74;87.69
35507;BME280;36461;52.018;21.036;2022-07-25T02:34:53;100592.98;;;12.71;87.73
35507;BME280;36461;52.018;21.036;2022-07-25T02:37:19;100593.53;;;12.67;87.67
35507;BME280;36461;52.018;21.036;2022-07-25T02:39:46;100594.90;;;12.66;87.81
35507;BME280;36461;52.018;21.036;2022-07-25T02:42:12;100587.55;;;12.65;87.87
35507;BME280;36461;52.018;21.036;2022-07-25T02:44:38;100594.56;;;12.63;87.90
35507;BME280;36461;52.018;21.036;2022-07-25T02:47:04;100585.10;;;12.61;88.00
35507;BME280;36461;52.018;21.036;2022-07-25T02:49:31;100588.67;;;12.58;88.09
35507;BME280;36461;52.018;21.036;2022-07-25T02:51:57;100592.20;;;12.57;88.08
35507;BME280;36461;52.018;21.036;2022-07-25T02:54:24;100592.70;;;12.55;88.11
35507;BME280;36461;52.018;21.036;2022-07-25T02:56:50;100592.70;;;12.55;88.11
35507;BME280;36461;52.018;21.036;2022-07-25T02:59:16;100590.93;;;12.55;88.42
35507;BME280;36461;52.018;21.036;2022-07-25T03:01:42;100592.64;;;12.56;88.54
35507;BME280;36461;52.018;21.036;2022-07-25T03:04:09;100598.71;;;12.57;88.60
35507;BME280;36461;52.018;21.036;2022-07-25T03:06:35;100601.25;;;12.58;88.40
35507;BME280;36461;52.018;21.036;2022-07-25T03:09:01;100599.55;;;12.57;88.24
35507;BME280;36461;52.018;21.036;2022-07-25T03:11:28;100598.25;;;12.57;88.26
35507;BME280;36461;52.018;21.036;2022-07-25T03:13:54;100597.41;;;12.57;88.16
35507;BME280;36461;52.018;21.036;2022-07-25T03:16:20;100597.34;;;12.58;88.34
35507;BME280;36461;52.018;21.036;2022-07-25T03:18:47;100597.72;;;12.59;88.33
35507;BME280;36461;52.018;21.036;2022-07-25T03:21:13;100597.28;;;12.60;88.46
35507;BME280;36461;52.018;21.036;2022-07-25T03:23:39;100597.69;;;12.61;88.52
35507;BME280;36461;52.018;21.036;2022-07-25T03:26:06;100599.42;;;12.61;88.57
35507;BME280;36461;52.018;21.036;2022-07-25T03:28:32;100601.97;;;12.62;88.61
35507;BME280;36461;52.018;21.036;2022-07-25T03:30:58;100598.03;;;12.64;88.62
35507;BME280;36461;52.018;21.036;2022-07-25T03:33:25;100595.37;;;12.65;88.53
35507;BME280;36461;52.018;21.036;2022-07-25T03:35:51;100594.41;;;12.68;88.59
35507;BME280;36461;52.018;21.036;2022-07-25T03:38:17;100589.97;;;12.70;88.61
35507;BME280;36461;52.018;21.036;2022-07-25T03:40:44;100588.54;;;12.73;88.62
35507;BME280;36461;52.018;21.036;2022-07-25T03:43:10;100591.11;;;12.74;88.51
35507;BME280;36461;52.018;21.036;2022-07-25T03:45:36;100593.19;;;12.76;88.62
35507;BME280;36461;52.018;21.036;2022-07-25T03:48:03;100589.16;;;12.80;88.69
35507;BME280;36461;52.018;21.036;2022-07-25T03:50:30;100596.87;;;12.83;88.71
35507;BME280;36461;52.018;21.036;2022-07-25T03:52:56;100590.23;;;12.86;88.68
35507;BME280;36461;52.018;21.036;2022-07-25T03:55:23;100593.18;;;12.88;88.77
35507;BME280;36461;52.018;21.036;2022-07-25T03:57:49;100590.02;;;12.92;88.79
35507;BME280;36461;52.018;21.036;2022-07-25T04:00:16;100588.58;;;12.95;88.80
35507;BME280;36461;52.018;21.036;2022-07-25T04:02:42;100585.78;;;13.00;88.92
35507;BME280;36461;52.018;21.036;2022-07-25T04:05:09;100589.06;;;13.05;88.91
35507;BME280;36461;52.018;21.036;2022-07-25T04:07:37;100588.09;;;13.07;88.95
35507;BME280;36461;52.018;21.036;2022-07-25T04:10:05;100592.67;;;13.13;89.00
35507;BME280;36461;52.018;21.036;2022-07-25T04:12:32;100585.96;;;13.17;89.12
35507;BME280;36461;52.018;21.036;2022-07-25T04:14:59;100577.07;;;13.23;89.16
35507;BME280;36461;52.018;21.036;2022-07-25T04:17:26;100583.72;;;13.30;89.19
35507;BME280;36461;52.018;21.036;2022-07-25T04:19:52;100583.05;;;13.37;89.21
35507;BME280;36461;52.018;21.036;2022-07-25T04:22:18;100580.54;;;13.46;89.24
35507;BME280;36461;52.018;21.036;2022-07-25T04:24:45;100585.34;;;13.55;89.31
35507;BME280;36461;52.018;21.036;2022-07-25T04:27:11;100582.02;;;13.62;89.20
35507;BME280;36461;52.018;21.036;2022-07-25T04:29:37;100584.39;;;13.68;89.12
35507;BME280;36461;52.018;21.036;2022-07-25T04:32:04;100583.20;;;13.75;89.18
35507;BME280;36461;52.018;21.036;2022-07-25T04:34:31;100580.28;;;13.83;89.29
35507;BME280;36461;52.018;21.036;2022-07-25T04:36:58;100579.09;;;14.21;90.53
35507;BME280;36461;52.018;21.036;2022-07-25T04:39:24;100581.25;;;14.40;89.48
35507;BME280;36461;52.018;21.036;2022-07-25T04:41:50;100576.28;;;14.44;88.74
35507;BME280;36461;52.018;21.036;2022-07-25T04:44:16;100580.59;;;14.46;88.46
35507;BME280;36461;52.018;21.036;2022-07-25T04:46:43;100587.44;;;14.48;88.44
35507;BME280;36461;52.018;21.036;2022-07-25T04:49:09;100587.17;;;14.54;88.44
35507;BME280;36461;52.018;21.036;2022-07-25T04:51:36;100585.05;;;14.63;88.58
35507;BME280;36461;52.018;21.036;2022-07-25T04:54:02;100575.14;;;14.80;88.85
35507;BME280;36461;52.018;21.036;2022-07-25T04:56:29;100577.55;;;14.84;88.49
35507;BME280;36461;52.018;21.036;2022-07-25T04:58:56;100586.28;;;15.02;89.09
35507;BME280;36461;52.018;21.036;2022-07-25T05:01:22;100582.89;;;15.37;89.54
35507;BME280;36461;52.018;21.036;2022-07-25T05:03:48;100584.61;;;15.82;90.28
35507;BME280;36461;52.018;21.036;2022-07-25T05:06:15;100582.45;;;16.23;89.45
35507;BME280;36461;52.018;21.036;2022-07-25T05:08:41;100584.38;;;16.94;89.90
35507;BME280;36461;52.018;21.036;2022-07-25T05:11:07;100579.50;;;17.65;90.00
35507;BME280;36461;52.018;21.036;2022-07-25T05:13:34;100578.11;;;18.18;87.91
35507;BME280;36461;52.018;21.036;2022-07-25T05:16:00;100586.80;;;18.04;85.15
35507;BME280;36461;52.018;21.036;2022-07-25T05:18:27;100577.17;;;17.74;83.98
35507;BME280;36461;52.018;21.036;2022-07-25T05:20:54;100570.28;;;17.57;84.12
35507;BME280;36461;52.018;21.036;2022-07-25T05:23:20;100572.52;;;17.56;84.27
35507;BME280;36461;52.018;21.036;2022-07-25T05:25:46;100570.33;;;17.41;83.73
35507;BME280;36461;52.018;21.036;2022-07-25T05:28:13;100569.93;;;17.33;83.99
35507;BME280;36461;52.018;21.036;2022-07-25T05:30:39;100572.30;;;17.38;84.93
35507;BME280;36461;52.018;21.036;2022-07-25T05:33:06;100568.81;;;17.60;85.78
35507;BME280;36461;52.018;21.036;2022-07-25T05:35:32;100557.72;;;18.00;86.05
35507;BME280;36461;52.018;21.036;2022-07-25T05:37:59;100550.20;;;17.94;84.67
35507;BME280;36461;52.018;21.036;2022-07-25T05:40:25;100552.70;;;17.81;84.07
35507;BME280;36461;52.018;21.036;2022-07-25T05:42:51;100549.77;;;17.64;83.84
35507;BME280;36461;52.018;21.036;2022-07-25T05:45:18;100550.50;;;17.52;84.18
35507;BME280;36461;52.018;21.036;2022-07-25T05:47:45;100553.56;;;17.44;84.33
35507;BME280;36461;52.018;21.036;2022-07-25T05:50:11;100556.08;;;17.38;84.62
35507;BME280;36461;52.018;21.036;2022-07-25T05:52:37;100548.49;;;17.34;84.74
35507;BME280;36461;52.018;21.036;2022-07-25T05:55:04;100551.56;;;17.33;84.60
35507;BME280;36461;52.018;21.036;2022-07-25T05:57:31;100548.75;;;17.36;84.68
35507;BME280;36461;52.018;21.036;2022-07-25T05:59:57;100547.58;;;17.42;84.92
35507;BME280;36461;52.018;21.036;2022-07-25T06:02:23;100547.77;;;17.46;84.79
35507;BME280;36461;52.018;21.036;2022-07-25T06:04:50;100542.72;;;17.50;84.83
35507;BME280;36461;52.018;21.036;2022-07-25T06:07:16;100541.50;;;17.56;85.12
35507;BME280;36461;52.018;21.036;2022-07-25T06:09:43;100548.27;;;17.60;84.78
35507;BME280;36461;52.018;21.036;2022-07-25T06:12:09;100549.22;;;17.66;84.88
35507;BME280;36461;52.018;21.036;2022-07-25T06:14:35;100547.91;;;17.73;85.18
35507;BME280;36461;52.018;21.036;2022-07-25T06:17:01;100544.45;;;17.80;85.14
35507;BME280;36461;52.018;21.036;2022-07-25T06:19:29;100543.13;;;17.87;85.02
35507;BME280;36461;52.018;21.036;2022-07-25T06:21:56;100540.17;;;17.93;84.77
35507;BME280;36461;52.018;21.036;2022-07-25T06:24:22;100534.36;;;18.03;84.52
35507;BME280;36461;52.018;21.036;2022-07-25T06:26:48;100534.35;;;18.10;84.66
35507;BME280;36461;52.018;21.036;2022-07-25T06:29:14;100526.88;;;18.18;84.33
35507;BME280;36461;52.018;21.036;2022-07-25T06:31:41;100528.06;;;18.27;84.45
35507;BME280;36461;52.018;21.036;2022-07-25T06:34:07;100520.92;;;18.36;84.03
35507;BME280;36461;52.018;21.036;2022-07-25T06:36:33;100522.04;;;18.47;83.88
35507;BME280;36461;52.018;21.036;2022-07-25T06:39:00;100523.98;;;18.57;83.79
35507;BME280;36461;52.018;21.036;2022-07-25T06:41:27;100517.00;;;18.64;83.31
35507;BME280;36461;52.018;21.036;2022-07-25T06:43:53;100514.72;;;18.72;82.77
35507;BME280;36461;52.018;21.036;2022-07-25T06:46:19;100512.81;;;18.81;82.48
35507;BME280;36461;52.018;21.036;2022-07-25T06:48:46;100511.53;;;18.88;82.04
35507;BME280;36461;52.018;21.036;2022-07-25T06:51:12;100515.33;;;18.97;82.27
35507;BME280;36461;52.018;21.036;2022-07-25T06:53:39;100504.69;;;19.06;81.99
35507;BME280;36461;52.018;21.036;2022-07-25T06:56:05;100500.23;;;19.14;81.14
35507;BME280;36461;52.018;21.036;2022-07-25T06:58:32;100494.81;;;19.22;80.90
35507;BME280;36461;52.018;21.036;2022-07-25T07:00:58;100494.09;;;19.33;80.23
35507;BME280;36461;52.018;21.036;2022-07-25T07:03:25;100492.64;;;19.42;80.05
35507;BME280;36461;52.018;21.036;2022-07-25T07:05:52;100497.63;;;19.52;80.28
35507;BME280;36461;52.018;21.036;2022-07-25T07:08:18;100493.44;;;19.62;79.44
35507;BME280;36461;52.018;21.036;2022-07-25T07:10:44;100504.06;;;19.74;79.08
35507;BME280;36461;52.018;21.036;2022-07-25T07:13:13;100499.77;;;19.86;78.77
35507;BME280;36461;52.018;21.036;2022-07-25T07:15:46;100494.05;;;20.05;78.19
35507;BME280;36461;52.018;21.036;2022-07-25T07:18:15;100490.14;;;20.29;77.56
35507;BME280;36461;52.018;21.036;2022-07-25T07:20:43;100486.59;;;20.54;77.08
35507;BME280;36461;52.018;21.036;2022-07-25T07:23:10;100486.28;;;20.77;76.46
35507;BME280;36461;52.018;21.036;2022-07-25T07:25:37;100483.75;;;21.06;75.53
35507;BME280;36461;52.018;21.036;2022-07-25T07:28:04;100483.33;;;21.35;75.09
35507;BME280;36461;52.018;21.036;2022-07-25T07:30:31;100481.25;;;21.57;74.51
35507;BME280;36461;52.018;21.036;2022-07-25T07:32:58;100481.13;;;21.70;73.87
35507;BME280;36461;52.018;21.036;2022-07-25T07:35:24;100481.37;;;21.72;72.49
35507;BME280;36461;52.018;21.036;2022-07-25T07:37:51;100483.30;;;21.76;72.52
35507;BME280;36461;52.018;21.036;2022-07-25T07:40:17;100486.31;;;21.83;71.79
35507;BME280;36461;52.018;21.036;2022-07-25T07:42:46;100485.23;;;21.85;70.22
35507;BME280;36461;52.018;21.036;2022-07-25T07:45:20;100482.22;;;21.84;69.91
35507;BME280;36461;52.018;21.036;2022-07-25T07:47:49;100475.13;;;21.85;70.03
35507;BME280;36461;52.018;21.036;2022-07-25T07:50:19;100472.38;;;21.92;69.76
35507;BME280;36461;52.018;21.036;2022-07-25T07:52:48;100471.89;;;22.04;69.88
35507;BME280;36461;52.018;21.036;2022-07-25T07:55:15;100467.30;;;22.23;69.11
35507;BME280;36461;52.018;21.036;2022-07-25T07:58:00;100461.75;;;22.26;68.24
35507;BME280;36461;52.018;21.036;2022-07-25T08:00:28;100470.98;;;22.32;68.03
35507;BME280;36461;52.018;21.036;2022-07-25T08:02:57;100467.27;;;22.40;67.91
35507;BME280;36461;52.018;21.036;2022-07-25T08:05:29;100471.14;;;22.41;66.67
35507;BME280;36461;52.018;21.036;2022-07-25T08:07:58;100470.38;;;22.45;66.80
35507;BME280;36461;52.018;21.036;2022-07-25T08:10:27;100464.50;;;22.47;66.20
35507;BME280;36461;52.018;21.036;2022-07-25T08:12:56;100465.59;;;22.44;66.06
35507;BME280;36461;52.018;21.036;2022-07-25T08:15:24;100458.74;;;22.42;65.46
35507;BME280;36461;52.018;21.036;2022-07-25T08:17:51;100449.84;;;22.43;65.82
35507;BME280;36461;52.018;21.036;2022-07-25T08:20:19;100451.14;;;22.49;65.55
35507;BME280;36461;52.018;21.036;2022-07-25T08:22:51;100447.52;;;22.55;64.57
35507;BME280;36461;52.018;21.036;2022-07-25T08:25:18;100455.30;;;22.62;64.70
35507;BME280;36461;52.018;21.036;2022-07-25T08:27:47;100455.06;;;22.66;64.77
35507;BME280;36461;52.018;21.036;2022-07-25T08:30:15;100455.06;;;22.66;64.48
35507;BME280;36461;52.018;21.036;2022-07-25T08:32:58;100451.88;;;22.51;62.67
35507;BME280;36461;52.018;21.036;2022-07-25T08:35:23;100455.26;;;22.36;63.10
35507;BME280;36461;52.018;21.036;2022-07-25T08:37:52;100455.26;;;22.36;63.03
35507;BME280;36461;52.018;21.036;2022-07-25T08:40:20;100445.17;;;22.35;62.53
35507;BME280;36461;52.018;21.036;2022-07-25T08:42:48;100449.25;;;22.39;63.52
35507;BME280;36461;52.018;21.036;2022-07-25T08:45:17;100446.01;;;22.41;62.88
35507;BME280;36461;52.018;21.036;2022-07-25T08:47:48;100441.91;;;22.43;62.95
35507;BME280;36461;52.018;21.036;2022-07-25T08:50:19;100444.53;;;22.49;61.72
35507;BME280;36461;52.018;21.036;2022-07-25T08:52:47;100437.32;;;22.45;61.36
35507;BME280;36461;52.018;21.036;2022-07-25T08:55:17;100434.55;;;22.46;62.00
35507;BME280;36461;52.018;21.036;2022-07-25T08:57:51;100424.30;;;22.53;61.99
35507;BME280;36461;52.018;21.036;2022-07-25T09:00:24;100426.06;;;22.64;62.41
35507;BME280;36461;52.018;21.036;2022-07-25T09:02:56;100421.92;;;22.77;62.16
35507;BME280;36461;52.018;21.036;2022-07-25T09:05:27;100424.53;;;22.88;62.05
35507;BME280;36461;52.018;21.036;2022-07-25T09:07:55;100420.30;;;22.91;61.28
35507;BME280;36461;52.018;21.036;2022-07-25T09:10:25;100421.98;;;22.92;61.02
35507;BME280;36461;52.018;21.036;2022-07-25T09:15:34;100431.67;;;23.03;60.71
35507;BME280;36461;52.018;21.036;2022-07-25T09:18:05;100433.22;;;23.06;61.10
35507;BME280;36461;52.018;21.036;2022-07-25T09:23:14;100428.39;;;23.05;60.61
35507;BME280;36461;52.018;21.036;2022-07-25T09:25:42;100427.52;;;23.10;60.98
35507;BME280;36461;52.018;21.036;2022-07-25T09:28:17;100422.59;;;23.11;60.65
35507;BME280;36461;52.018;21.036;2022-07-25T09:31:00;100421.61;;;23.18;60.02
35507;BME280;36461;52.018;21.036;2022-07-25T09:33:25;100418.24;;;23.16;59.08
35507;BME280;36461;52.018;21.036;2022-07-25T09:35:55;100417.15;;;23.19;59.43
35507;BME280;36461;52.018;21.036;2022-07-25T09:38:22;100421.08;;;23.24;59.79
35507;BME280;36461;52.018;21.036;2022-07-25T09:43:40;100418.78;;;23.25;58.13
35507;BME280;36461;52.018;21.036;2022-07-25T09:46:10;100418.32;;;23.26;58.27
35507;BME280;36461;52.018;21.036;2022-07-25T09:48:38;100409.97;;;23.31;57.81
35507;BME280;36461;52.018;21.036;2022-07-25T09:51:06;100409.69;;;23.34;57.67
35507;BME280;36461;52.018;21.036;2022-07-25T09:53:33;100412.33;;;23.39;58.09
35507;BME280;36461;52.018;21.036;2022-07-25T09:56:00;100411.64;;;23.47;58.17
35507;BME280;36461;52.018;21.036;2022-07-25T09:58:27;100412.58;;;23.52;57.51
35507;BME280;36461;52.018;21.036;2022-07-25T10:01:00;100393.90;;;23.53;56.90
35507;BME280;36461;52.018;21.036;2022-07-25T10:06:39;100395.53;;;23.60;56.88
35507;BME280;36461;52.018;21.036;2022-07-25T10:09:14;100400.09;;;23.63;56.49
35507;BME280;36461;52.018;21.036;2022-07-25T10:12:07;100394.86;;;23.68;56.51
35507;BME280;36461;52.018;21.036;2022-07-25T10:14:36;100390.75;;;23.69;55.99
35507;BME280;36461;52.018;21.036;2022-07-25T10:17:04;100387.32;;;23.73;56.21
35507;BME280;36461;52.018;21.036;2022-07-25T10:19:43;100385.25;;;23.76;56.27
35507;BME280;36461;52.018;21.036;2022-07-25T10:22:10;100383.32;;;23.78;56.16
35507;BME280;36461;52.018;21.036;2022-07-25T10:24:42;100380.61;;;23.84;56.58
35507;BME280;36461;52.018;21.036;2022-07-25T10:27:12;100382.26;;;23.91;56.12
35507;BME280;36461;52.018;21.036;2022-07-25T10:29:41;100383.59;;;23.91;55.29
35507;BME280;36461;52.018;21.036;2022-07-25T10:32:08;100376.23;;;23.89;54.97
35507;BME280;36461;52.018;21.036;2022-07-25T10:34:36;100379.36;;;23.88;54.60
35507;BME280;36461;52.018;21.036;2022-07-25T10:37:10;100366.49;;;23.89;54.71
35507;BME280;36461;52.018;21.036;2022-07-25T10:39:40;100365.92;;;23.95;54.89
35507;BME280;36461;52.018;21.036;2022-07-25T10:42:14;100362.02;;;24.00;54.34
35507;BME280;36461;52.018;21.036;2022-07-25T10:44:53;100357.44;;;24.02;54.29
35507;BME280;36461;52.018;21.036;2022-07-25T10:47:21;100346.69;;;24.03;54.16
35507;BME280;36461;52.018;21.036;2022-07-25T10:49:55;100348.38;;;24.14;54.91
35507;BME280;36461;52.018;21.036;2022-07-25T10:52:28;100347.19;;;24.22;55.35
35507;BME280;36461;52.018;21.036;2022-07-25T10:54:57;100339.30;;;24.26;53.87
35507;BME280;36461;52.018;21.036;2022-07-25T10:57:26;100341.19;;;24.30;53.84
35507;BME280;36461;52.018;21.036;2022-07-25T10:59:56;100328.96;;;24.33;54.20
35507;BME280;36461;52.018;21.036;2022-07-25T11:02:23;100339.46;;;24.35;53.68
35507;BME280;36461;52.018;21.036;2022-07-25T11:05:00;100342.17;;;24.39;53.69
35507;BME280;36461;52.018;21.036;2022-07-25T11:07:28;100333.36;;;24.38;52.86
35507;BME280;36461;52.018;21.036;2022-07-25T11:09:58;100334.22;;;24.39;53.21
35507;BME280;36461;52.018;21.036;2022-07-25T11:12:27;100332.45;;;24.43;53.46
35507;BME280;36461;52.018;21.036;2022-07-25T11:15:05;100324.06;;;24.48;53.03
35507;BME280;36461;52.018;21.036;2022-07-25T11:17:33;100325.13;;;24.51;52.62
35507;BME280;36461;52.018;21.036;2022-07-25T11:20:05;100323.86;;;24.55;53.05
35507;BME280;36461;52.018;21.036;2022-07-25T11:22:33;100321.88;;;24.57;52.13
35507;BME280;36461;52.018;21.036;2022-07-25T11:25:01;100322.53;;;24.55;51.94
35507;BME280;36461;52.018;21.036;2022-07-25T11:27:32;100321.06;;;24.57;51.77
35507;BME280;36461;52.018;21.036;2022-07-25T11:30:10;100312.66;;;24.61;51.69
35507;BME280;36461;52.018;21.036;2022-07-25T11:32:46;100314.78;;;24.68;51.96
35507;BME280;36461;52.018;21.036;2022-07-25T11:35:21;100317.70;;;24.74;51.04
35507;BME280;36461;52.018;21.036;2022-07-25T11:37:53;100312.75;;;24.75;50.89
35507;BME280;36461;52.018;21.036;2022-07-25T11:40:21;100310.30;;;24.78;50.26
35507;BME280;36461;52.018;21.036;2022-07-25T11:42:50;100308.17;;;24.82;50.69
35507;BME280;36461;52.018;21.036;2022-07-25T11:45:27;100303.12;;;24.88;51.35
35507;BME280;36461;52.018;21.036;2022-07-25T11:50:40;100294.09;;;24.95;50.68
35507;BME280;36461;52.018;21.036;2022-07-25T11:53:12;100303.94;;;24.99;50.50
35507;BME280;36461;52.018;21.036;2022-07-25T11:55:41;100295.88;;;25.04;50.34
35507;BME280;36461;52.018;21.036;2022-07-25T11:58:09;100294.13;;;25.09;51.31
35507;BME280;36461;52.018;21.036;2022-07-25T12:00:42;100293.47;;;25.11;50.92
35507;BME280;36461;52.018;21.036;2022-07-25T12:03:12;100285.18;;;25.10;50.38
35507;BME280;36461;52.018;21.036;2022-07-25T12:05:40;100281.87;;;25.12;49.90
35507;BME280;36461;52.018;21.036;2022-07-25T12:08:12;100273.27;;;25.14;49.84
35507;BME280;36461;52.018;21.036;2022-07-25T12:10:41;100271.14;;;25.18;49.75
35507;BME280;36461;52.018;21.036;2022-07-25T12:13:27;100272.72;;;25.24;50.53
35507;BME280;36461;52.018;21.036;2022-07-25T12:15:57;100272.91;;;25.27;49.85
35507;BME280;36461;52.018;21.036;2022-07-25T12:18:25;100263.14;;;25.27;49.51
35507;BME280;36461;52.018;21.036;2022-07-25T12:20:52;100263.19;;;25.32;49.68
35507;BME280;36461;52.018;21.036;2022-07-25T12:23:18;100264.59;;;25.36;50.93
35507;BME280;36461;52.018;21.036;2022-07-25T12:25:46;100264.98;;;25.41;50.49
35507;BME280;36461;52.018;21.036;2022-07-25T12:28:13;100264.79;;;25.38;49.86
35507;BME280;36461;52.018;21.036;2022-07-25T12:30:41;100260.80;;;25.38;49.03
35507;BME280;36461;52.018;21.036;2022-07-25T12:33:09;100252.05;;;25.32;48.93
35507;BME280;36461;52.018;21.036;2022-07-25T12:35:39;100249.91;;;25.32;48.44
35507;BME280;36461;52.018;21.036;2022-07-25T12:38:06;100244.31;;;25.35;48.93
35507;BME280;36461;52.018;21.036;2022-07-25T12:40:33;100252.02;;;25.42;48.91
35507;BME280;36461;52.018;21.036;2022-07-25T12:42:59;100246.27;;;25.46;48.77
35507;BME280;36461;52.018;21.036;2022-07-25T12:45:26;100247.99;;;25.52;49.38
35507;BME280;36461;52.018;21.036;2022-07-25T12:47:54;100246.55;;;25.57;49.11
35507;BME280;36461;52.018;21.036;2022-07-25T12:50:21;100238.07;;;25.58;48.54
35507;BME280;36461;52.018;21.036;2022-07-25T12:52:49;100244.91;;;25.60;49.29
35507;BME280;36461;52.018;21.036;2022-07-25T12:55:17;100238.61;;;25.61;48.69
35507;BME280;36461;52.018;21.036;2022-07-25T12:57:45;100241.90;;;25.59;48.70